Time;durP1;ratioP1;P1;durP2;ratioP2;P2;SDS_P1;SDS_P2;PMS_P1;PMS_P2;Temp;Humidity;BMP_temperature;BMP_pressure;BME280_temperature;BME280_humidity;BME280_pressure;Samples;Min_cycle;Max_cycle;Signal;HPM_P1;HPM_P2
2021/03/15 00:02:32;;;;;;;0.00;0.00;;;-0.40;77.30;;;;;;20803205;22;20509;-49
2021/03/15 00:12:35;;;;;;;0.10;0.00;;;-0.40;80.50;;;;;;20802904;28;20090;-46
2021/03/15 00:22:37;;;;;;;0.00;0.00;;;-1.00;85.50;;;;;;20802776;28;20345;-51
2021/03/15 00:32:39;;;;;;;0.43;0.00;;;-1.50;85.20;;;;;;20786274;28;20115;-46
2021/03/15 00:42:43;;;;;;;0.10;0.00;;;-1.60;86.10;;;;;;20818299;28;20068;-47
2021/03/15 00:52:46;;;;;;;0.00;0.00;;;-1.70;88.90;;;;;;20828879;28;20037;-49
2021/03/15 01:02:48;;;;;;;0.00;0.00;;;-1.90;90.10;;;;;;20834557;28;20053;-52
2021/03/15 01:12:50;;;;;;;0.00;0.00;;;-1.90;89.20;;;;;;20816639;28;20029;-52
2021/03/15 01:22:54;;;;;;;0.15;0.00;;;-2.10;89.30;;;;;;20815037;28;20053;-53
2021/03/15 01:32:57;;;;;;;0.47;0.10;;;-2.10;90.20;;;;;;20832491;28;20033;-47
2021/03/15 01:42:59;;;;;;;0.95;0.15;;;-2.20;93.40;;;;;;20832210;28;20034;-46
2021/03/15 01:53:01;;;;;;;0.10;0.10;;;-2.20;93.00;;;;;;20797068;28;20038;-46
2021/03/15 02:03:06;;;;;;;0.17;0.00;;;-2.00;93.90;;;;;;20794794;28;20049;-47
2021/03/15 02:13:19;;;;;;;0.03;0.00;;;-2.10;93.20;;;;;;20828605;28;20176;-48
2021/03/15 02:23:26;;;;;;;0.22;0.00;;;-1.90;92.70;;;;;;20810825;28;20435;-46
2021/03/15 02:33:58;;;;;;;0.00;0.00;;;-2.00;93.60;;;;;;20793740;28;20472;-52
2021/03/15 02:44:04;;;;;;;0.30;0.20;;;-1.60;93.40;;;;;;20825973;28;20084;-47
2021/03/15 02:54:10;;;;;;;1.05;0.15;;;-2.20;95.30;;;;;;20825186;28;20049;-47
2021/03/15 03:04:12;;;;;;;0.40;0.10;;;-2.20;96.30;;;;;;20806771;28;20045;-47
2021/03/15 03:14:15;;;;;;;0.60;0.15;;;-2.10;95.90;;;;;;20773782;28;20037;-48
2021/03/15 03:24:19;;;;;;;0.55;0.10;;;-1.80;95.90;;;;;;20824676;28;20045;-47
2021/03/15 03:34:21;;;;;;;0.10;0.00;;;-2.00;97.00;;;;;;20805330;28;20029;-46
2021/03/15 03:44:24;;;;;;;1.20;0.10;;;-1.80;95.10;;;;;;20805371;28;20049;-48
2021/03/15 03:54:45;;;;;;;0.00;0.00;;;-1.80;94.90;;;;;;20822043;28;20088;-47
2021/03/15 04:04:50;;;;;;;0.13;0.00;;;-1.90;94.40;;;;;;20820689;28;20053;-51
2021/03/15 04:14:54;;;;;;;0.00;0.00;;;-1.90;93.90;;;;;;20802691;28;20067;-47
2021/03/15 04:25:00;;;;;;;0.00;0.00;;;-1.90;93.50;;;;;;20785185;28;20429;-46
2021/03/15 04:35:04;;;;;;;0.98;0.00;;;-1.90;94.10;;;;;;20801761;28;20411;-50
2021/03/15 04:45:07;;;;;;;0.03;0.00;;;-2.00;93.70;;;;;;20818832;28;20061;-48
2021/03/15 04:55:11;;;;;;;0.30;0.00;;;-1.80;93.60;;;;;;20819132;28;20041;-47
2021/03/15 05:05:15;;;;;;;0.00;0.00;;;-2.10;93.90;;;;;;20801790;28;20115;-46
2021/03/15 05:15:17;;;;;;;0.35;0.00;;;-2.00;94.00;;;;;;20818008;28;20041;-46
2021/03/15 05:25:21;;;;;;;1.23;0.00;;;-1.90;93.60;;;;;;20816948;28;20038;-53
2021/03/15 05:35:24;;;;;;;0.00;0.00;;;-1.80;93.30;;;;;;20802374;28;20565;-48
2021/03/15 05:45:27;;;;;;;0.08;0.00;;;-1.90;93.10;;;;;;20797574;28;20099;-48
2021/03/15 05:55:43;;;;;;;0.10;0.00;;;-1.90;93.20;;;;;;20796295;28;20472;-47
2021/03/15 06:05:47;;;;;;;0.00;0.00;;;-1.70;92.90;;;;;;20811038;28;20049;-49
2021/03/15 06:15:50;;;;;;;0.00;0.00;;;-1.50;92.50;;;;;;20811641;28;20095;-51
2021/03/15 06:25:54;;;;;;;0.25;0.00;;;-1.50;92.80;;;;;;20811157;28;20121;-53
2021/03/15 06:36:06;;;;;;;0.00;0.00;;;-1.30;92.10;;;;;;20809333;28;20060;-49
2021/03/15 06:46:09;;;;;;;0.10;0.00;;;-1.20;92.70;;;;;;20807954;28;20053;-49
2021/03/15 06:56:12;;;;;;;0.00;0.00;;;-1.00;93.20;;;;;;20807727;28;20476;-50
2021/03/15 07:06:17;;;;;;;0.00;0.00;;;-0.90;92.60;;;;;;20792148;28;20506;-53
2021/03/15 07:16:28;;;;;;;0.00;0.00;;;-0.70;91.60;;;;;;20807042;28;20122;-51
2021/03/15 07:26:31;;;;;;;0.00;0.00;;;0.30;89.50;;;;;;20789760;28;20076;-47
2021/03/15 07:36:47;;;;;;;0.85;0.00;;;1.10;87.70;;;;;;20805667;28;20092;-47
2021/03/15 07:46:53;;;;;;;0.88;0.08;;;1.70;88.00;;;;;;20787731;28;20041;-48
2021/03/15 07:57:14;;;;;;;0.13;0.08;;;2.80;90.30;;;;;;20802977;28;20344;-47
2021/03/15 08:07:17;;;;;;;;;;;3.70;89.00;;;;;;20787479;28;20054;-49
2021/03/15 08:17:23;;;;;;;0.20;0.00;;;4.50;79.20;;;;;;20785846;28;19925;-50
2021/03/15 08:27:31;;;;;;;0.00;0.00;;;4.50;72.20;;;;;;20802867;28;20064;-53
2021/03/15 08:37:54;;;;;;;0.00;0.00;;;4.20;71.50;;;;;;20802847;28;20428;-47
2021/03/15 08:48:00;;;;;;;0.30;0.13;;;4.20;74.90;;;;;;20819666;28;20096;-46
2021/03/15 08:58:34;;;;;;;0.52;0.17;;;5.10;75.50;;;;;;20800997;28;20069;-46
2021/03/15 09:08:59;;;;;;;0.25;0.10;;;5.80;81.40;;;;;;20783570;28;20054;-46
2021/03/15 09:19:15;;;;;;;0.47;0.00;;;6.30;69.70;;;;;;20799711;28;20447;-47
2021/03/15 09:29:18;;;;;;;0.08;0.00;;;6.70;59.10;;;;;;20815367;28;20072;-47
2021/03/15 09:39:24;;;;;;;0.00;0.00;;;7.20;60.00;;;;;;20814516;28;20033;-47
2021/03/15 09:49:39;;;;;;;0.32;0.00;;;7.60;58.30;;;;;;20813888;28;20038;-49
2021/03/15 09:59:49;;;;;;;0.10;0.10;;;8.40;56.30;;;;;;20796920;28;20111;-50
2021/03/15 10:09:54;;;;;;;0.50;0.22;;;8.50;55.40;;;;;;20829844;28;20037;-50
2021/03/15 10:20:28;;;;;;;0.20;0.10;;;8.60;57.80;;;;;;20732208;28;20132;-47
2021/03/15 10:30:35;;;;;;;0.65;0.10;;;8.80;54.30;;;;;;20772712;28;20292;-46
2021/03/15 10:40:39;;;;;;;0.90;0.20;;;8.90;53.80;;;;;;20777754;28;20087;-47
2021/03/15 10:50:47;;;;;;;1.20;0.10;;;9.30;55.30;;;;;;20808884;28;20459;-47
2021/03/15 11:01:04;;;;;;;0.80;0.38;;;9.30;57.60;;;;;;20776569;28;20127;-46
2021/03/15 11:11:18;;;;;;;0.70;0.40;;;9.20;61.00;;;;;;20807584;28;20029;-50
2021/03/15 11:21:25;;;;;;;2.03;0.70;;;9.20;61.90;;;;;;20780487;28;20095;-52
2021/03/15 11:31:52;;;;;;;2.42;0.45;;;9.30;62.10;;;;;;20791072;28;20463;-46
2021/03/15 11:41:57;;;;;;;1.08;0.50;;;9.50;62.20;;;;;;20762879;28;20054;-46
2021/03/15 11:52:03;;;;;;;1.05;0.38;;;10.10;55.10;;;;;;20788633;28;20029;-46
2021/03/15 12:13:24;;;;;;;0.50;0.20;;;10.00;54.60;;;;;;20576483;28;20050;-44
2021/03/15 12:23:27;;;;;;;0.32;0.10;;;9.90;55.70;;;;;;20592530;28;20362;-48
2021/03/15 12:33:29;;;;;;;0.68;0.20;;;10.00;52.30;;;;;;20591631;28;20039;-49
2021/03/15 12:43:31;;;;;;;0.82;0.30;;;10.40;47.90;;;;;;20577079;28;20043;-45
2021/03/15 12:53:44;;;;;;;0.65;0.30;;;10.30;55.30;;;;;;20590806;28;20047;-47
2021/03/15 13:04:00;;;;;;;1.58;0.40;;;10.30;47.70;;;;;;20631349;28;20046;-44
2021/03/15 13:14:07;;;;;;;0.60;0.40;;;10.40;54.60;;;;;;20735334;28;20042;-46
2021/03/15 13:24:14;;;;;;;0.57;0.30;;;10.40;51.80;;;;;;20719303;28;20395;-45
2021/03/15 13:34:21;;;;;;;1.13;0.60;;;10.60;51.40;;;;;;20717278;28;20042;-52
2021/03/15 13:44:24;;;;;;;1.63;0.50;;;9.90;50.90;;;;;;20715834;28;20080;-56
2021/03/15 13:54:26;;;;;;;2.78;0.63;;;9.10;50.30;;;;;;20731594;28;20092;-49
2021/03/15 14:04:28;;;;;;;1.85;0.70;;;8.30;51.30;;;;;;20707367;28;20045;-49
2021/03/15 14:14:38;;;;;;;1.80;0.65;;;7.60;59.30;;;;;;20746570;28;20042;-46
2021/03/15 14:24:43;;;;;;;3.22;0.98;;;7.30;59.10;;;;;;20715818;28;20096;-50
2021/03/15 14:34:55;;;;;;;4.05;1.58;;;6.90;62.50;;;;;;20663131;28;20069;-46
2021/03/15 14:45:08;;;;;;;2.83;1.20;;;6.70;64.40;;;;;;20703590;28;20068;-46
2021/03/15 14:55:19;;;;;;;;;;;6.30;66.90;;;;;;20728728;28;20038;-51
2021/03/15 15:05:23;;;;;;;2.53;1.40;;;6.30;68.60;;;;;;20742662;28;19917;-49
2021/03/15 15:15:27;;;;;;;2.65;0.98;;;6.20;70.10;;;;;;20741918;28;20034;-46
2021/03/15 15:25:30;;;;;;;4.15;0.70;;;6.00;70.80;;;;;;20725316;28;20042;-49
2021/03/15 15:35:32;;;;;;;1.00;0.40;;;5.90;73.30;;;;;;20723933;28;20068;-50
2021/03/15 15:45:35;;;;;;;0.77;0.43;;;5.60;78.00;;;;;;20691637;28;20104;-48
2021/03/15 15:55:37;;;;;;;1.15;0.40;;;5.50;80.20;;;;;;20690960;28;20029;-51
2021/03/15 16:05:45;;;;;;;1.45;0.60;;;5.40;77.20;;;;;;20674919;28;20050;-47
2021/03/15 16:15:47;;;;;;;1.55;0.50;;;4.80;81.10;;;;;;20673709;28;20068;-52
2021/03/15 16:25:49;;;;;;;0.68;0.40;;;4.20;82.70;;;;;;20721774;28;20381;-50
2021/03/15 16:35:51;;;;;;;0.90;0.43;;;3.80;86.50;;;;;;20694849;28;20475;-47
2021/03/15 16:45:57;;;;;;;1.40;0.50;;;3.60;88.00;;;;;;20689196;28;20174;-45
2021/03/15 16:55:59;;;;;;;0.90;0.50;;;3.40;90.90;;;;;;20704002;28;20451;-49
2021/03/15 17:06:01;;;;;;;0.90;0.43;;;3.00;91.40;;;;;;20687924;28;20104;-54
2021/03/15 17:16:03;;;;;;;0.60;0.40;;;2.70;92.40;;;;;;20720647;28;20058;-50
2021/03/15 17:26:05;;;;;;;2.00;0.40;;;2.40;94.10;;;;;;20687381;28;20034;-49
2021/03/15 17:36:08;;;;;;;3.05;0.45;;;2.10;93.50;;;;;;20744002;28;20427;-53
2021/03/15 17:46:10;;;;;;;1.80;0.40;;;2.00;95.20;;;;;;20725589;28;20033;-50
2021/03/15 17:56:12;;;;;;;3.75;0.32;;;1.60;96.40;;;;;;20716255;28;20038;-50
2021/03/15 18:06:14;;;;;;;1.15;0.50;;;1.20;97.70;;;;;;20684152;28;20104;-55
2021/03/15 18:16:17;;;;;;;7.20;0.47;;;1.00;98.90;;;;;;20732451;28;20075;-52
2021/03/15 18:26:20;;;;;;;2.78;0.22;;;0.90;98.50;;;;;;20732369;28;20115;-56
2021/03/15 18:36:23;;;;;;;1.20;0.40;;;1.10;97.80;;;;;;20697562;28;20053;-50
2021/03/15 18:46:25;;;;;;;2.20;0.43;;;1.20;98.90;;;;;;20695894;28;20476;-47
2021/03/15 18:56:27;;;;;;;3.15;0.40;;;0.80;99.90;;;;;;20711125;28;20439;-51
2021/03/15 19:06:29;;;;;;;1.10;0.50;;;0.60;99.90;;;;;;20678565;28;20120;-44
2021/03/15 19:16:31;;;;;;;3.15;0.57;;;0.80;99.90;;;;;;20673119;28;20037;-51
2021/03/15 19:26:34;;;;;;;2.30;0.32;;;1.20;99.90;;;;;;20700434;28;20046;-46
2021/03/15 19:36:37;;;;;;;2.22;0.30;;;1.40;99.90;;;;;;20700135;28;20489;-46
2021/03/15 19:46:41;;;;;;;3.53;0.63;;;1.70;98.60;;;;;;20701008;28;20096;-48
2021/03/15 19:56:49;;;;;;;3.10;0.40;;;1.80;99.20;;;;;;20683726;28;20037;-49
2021/03/15 20:06:52;;;;;;;0.30;0.10;;;1.40;99.20;;;;;;20698372;28;20062;-48
2021/03/15 20:16:57;;;;;;;2.25;0.10;;;1.00;96.60;;;;;;20682442;28;20550;-53
2021/03/15 20:27:01;;;;;;;0.65;0.30;;;0.80;95.00;;;;;;20681815;28;20058;-50
2021/03/15 20:37:03;;;;;;;1.10;0.38;;;1.20;95.00;;;;;;20665721;28;20044;-48
2021/03/15 20:47:05;;;;;;;2.03;0.60;;;1.40;95.10;;;;;;20666311;28;20407;-52
2021/03/15 20:57:08;;;;;;;2.60;0.38;;;1.60;95.30;;;;;;20713512;28;20050;-51
2021/03/15 21:07:13;;;;;;;2.55;0.52;;;1.70;95.30;;;;;;20686305;28;20049;-48
2021/03/15 21:17:15;;;;;;;0.90;0.30;;;1.50;95.20;;;;;;20652777;28;20104;-48
2021/03/15 21:27:18;;;;;;;0.70;0.40;;;1.50;94.10;;;;;;20632102;28;20060;-52
2021/03/15 21:37:20;;;;;;;0.40;0.25;;;1.40;93.90;;;;;;20709842;28;20038;-50
2021/03/15 21:47:22;;;;;;;1.92;0.10;;;1.50;93.70;;;;;;20650096;28;20038;-48
2021/03/15 21:57:24;;;;;;;0.65;0.10;;;1.40;93.40;;;;;;20630379;28;20034;-49
2021/03/15 22:07:26;;;;;;;1.02;0.10;;;1.30;93.20;;;;;;20665259;28;20120;-52
2021/03/15 22:17:28;;;;;;;0.30;0.00;;;1.50;92.90;;;;;;20613140;28;20547;-50
2021/03/15 22:27:32;;;;;;;0.08;0.03;;;1.60;92.80;;;;;;20652968;28;20038;-51
2021/03/15 22:37:35;;;;;;;0.20;0.10;;;1.60;92.80;;;;;;20700782;28;20646;-47
2021/03/15 22:47:37;;;;;;;0.30;0.10;;;1.40;93.30;;;;;;20603639;28;20031;-47
2021/03/15 22:57:40;;;;;;;2.65;0.15;;;1.10;93.50;;;;;;20668270;28;20066;-48
2021/03/15 23:07:44;;;;;;;0.20;0.00;;;0.90;93.80;;;;;;20696019;28;20058;-49
2021/03/15 23:17:46;;;;;;;0.45;0.03;;;0.70;94.10;;;;;;20678858;28;20045;-47
2021/03/15 23:27:48;;;;;;;0.10;0.00;;;0.70;94.00;;;;;;20676893;28;20081;-47
2021/03/15 23:37:50;;;;;;;2.03;0.00;;;0.70;92.60;;;;;;20727104;28;20049;-50
2021/03/15 23:47:52;;;;;;;0.10;0.00;;;0.70;91.50;;;;;;20676713;28;20807;-47
2021/03/15 23:57:54;;;;;;;0.10;0.00;;;0.80;90.40;;;;;;20725832;28;20081;-51
